createdAt,value
2023-05-14T00:00:27.485Z,604.9
2023-05-14T00:01:34.732Z,605.3
2023-05-14T00:02:41.982Z,603.8
2023-05-14T00:06:50.031Z,606.1
2023-05-14T00:10:05.946Z,606
2023-05-14T00:11:12.742Z,605.8
2023-05-14T00:12:19.495Z,605.9
2023-05-14T00:13:26.280Z,606.7
2023-05-14T00:14:33.046Z,606.5
2023-05-14T00:15:39.831Z,605.4
2023-05-14T00:16:46.604Z,605.1
2023-05-14T00:17:53.388Z,607.1
2023-05-14T00:19:00.157Z,604.2
2023-05-14T00:20:06.944Z,605.4
2023-05-14T00:21:13.710Z,605.5
2023-05-14T00:22:20.490Z,605.9
2023-05-14T00:23:27.293Z,605.6
2023-05-14T00:24:34.048Z,605.7
2023-05-14T00:25:40.828Z,606.1
2023-05-14T00:26:47.615Z,605.2
2023-05-14T00:27:54.387Z,605.9
2023-05-14T00:29:01.179Z,606.7
2023-05-14T00:30:07.976Z,606
2023-05-14T00:31:14.722Z,605.6
2023-05-14T00:32:21.496Z,605.9
2023-05-14T00:33:28.304Z,605.4
2023-05-14T00:34:35.059Z,605.2
2023-05-14T00:35:41.839Z,604.9
2023-05-14T00:36:48.635Z,605.4
2023-05-14T00:38:21.919Z,605.4
2023-05-14T00:40:00.662Z,604
2023-05-14T00:41:39.403Z,605.8
2023-05-14T00:43:18.155Z,605.2
2023-05-14T00:44:56.865Z,605.3
2023-05-14T00:46:04.113Z,602.8
2023-05-14T00:47:11.382Z,605.1
2023-05-14T00:48:50.123Z,603.1
2023-05-14T00:50:28.845Z,605.1
2023-05-14T00:52:07.581Z,603.4
2023-05-14T00:53:46.335Z,604.4
2023-05-14T00:55:25.073Z,605.5
2023-05-14T00:57:03.802Z,605.4
2023-05-14T01:01:11.851Z,603.8
2023-05-14T01:02:31.285Z,606.3
2023-05-14T01:04:28.266Z,605.5
2023-05-14T01:06:07.004Z,605.8
2023-05-14T01:07:45.737Z,604.6
2023-05-14T01:09:24.475Z,605.8
2023-05-14T01:11:03.243Z,604.6
2023-05-14T01:12:42.011Z,603.9
2023-05-14T01:14:20.680Z,603.9
2023-05-14T01:15:59.417Z,604.3
2023-05-14T01:17:38.167Z,605.6
2023-05-14T01:19:16.910Z,604.5
2023-05-14T01:20:24.169Z,605.6
2023-05-14T01:21:31.409Z,604.6
2023-05-14T01:23:10.131Z,603.4
2023-05-14T01:24:48.874Z,603.8
2023-05-14T01:26:27.615Z,604.7
2023-05-14T01:28:06.359Z,604.4
2023-05-14T01:29:45.090Z,605.5
2023-05-14T01:31:23.876Z,604.3
2023-05-14T01:33:02.570Z,604.6
2023-05-14T01:34:41.297Z,603.9
2023-05-14T01:36:20.036Z,605.8
2023-05-14T01:37:27.336Z,604
2023-05-14T01:38:34.549Z,604.3
2023-05-14T01:40:13.314Z,604.5
2023-05-14T01:44:21.340Z,604.5
2023-05-14T01:47:37.921Z,604.6
2023-05-14T01:49:32.894Z,603.4
2023-05-14T01:51:11.633Z,604.4
2023-05-14T01:52:50.388Z,603.9
2023-05-14T01:53:57.637Z,604.3
2023-05-14T01:55:04.888Z,604.2
2023-05-14T01:56:43.628Z,603.4
2023-05-14T01:58:22.347Z,602.8
2023-05-14T02:00:01.097Z,602.5
2023-05-14T02:01:39.840Z,604
2023-05-14T02:03:18.568Z,604.5
2023-05-14T02:04:57.306Z,602.7
2023-05-14T02:06:36.054Z,602.9
2023-05-14T02:08:14.800Z,605.1
2023-05-14T02:09:53.535Z,603
2023-05-14T02:11:00.795Z,603.7
2023-05-14T02:12:08.042Z,603.3
2023-05-14T02:13:46.777Z,602.7
2023-05-14T02:15:25.540Z,603.2
2023-05-14T02:17:04.250Z,603.9
2023-05-14T02:18:42.986Z,603.3
2023-05-14T02:20:21.730Z,602.1
2023-05-14T02:22:00.463Z,602.2
2023-05-14T02:23:39.200Z,603
2023-05-14T02:25:17.951Z,605.5
2023-05-14T02:27:28.826Z,604.1
2023-05-14T02:29:25.985Z,603.4
2023-05-14T02:32:41.914Z,600.9
2023-05-14T02:33:48.702Z,603.3
2023-05-14T02:34:55.486Z,602.9
2023-05-14T02:36:02.238Z,604.5
2023-05-14T02:37:09.127Z,603.6
2023-05-14T02:38:15.828Z,603.7
2023-05-14T02:39:22.575Z,603.9
2023-05-14T02:40:29.352Z,604.9
2023-05-14T02:41:36.178Z,605.2
2023-05-14T02:42:42.921Z,603.2
2023-05-14T02:43:49.691Z,601.6
2023-05-14T02:44:56.427Z,603.5
2023-05-14T02:46:03.139Z,603.4
2023-05-14T02:47:09.856Z,602.7
2023-05-14T02:48:16.581Z,603.9
2023-05-14T02:49:23.295Z,602.6
2023-05-14T02:50:30.085Z,601.6
2023-05-14T02:51:36.800Z,602.6
2023-05-14T02:52:43.581Z,602.8
2023-05-14T02:53:50.368Z,603.6
2023-05-14T02:54:57.144Z,603.2
2023-05-14T02:56:03.865Z,602.9
2023-05-14T02:57:10.646Z,604.2
2023-05-14T02:58:17.371Z,603.8
2023-05-14T02:59:24.145Z,603.4
2023-05-14T03:00:31.372Z,603
2023-05-14T03:01:38.633Z,601.8
2023-05-14T03:03:17.357Z,603.1
2023-05-14T03:04:56.090Z,602.6
2023-05-14T03:06:34.814Z,602.7
2023-05-14T03:08:13.553Z,601.5
2023-05-14T03:09:52.292Z,602.5
2023-05-14T03:11:31.018Z,601.8
2023-05-14T03:13:09.746Z,602.9
2023-05-14T03:14:48.482Z,602.4
2023-05-14T03:16:27.207Z,601.3
2023-05-14T03:17:34.467Z,603.5
2023-05-14T03:18:41.718Z,603.8
2023-05-14T03:22:49.731Z,602.2
2023-05-14T03:26:07.137Z,601.4
2023-05-14T03:29:23.089Z,601.6
2023-05-14T03:30:29.835Z,602
2023-05-14T03:31:36.620Z,601.8
2023-05-14T03:32:43.391Z,603.5
2023-05-14T03:33:50.171Z,600.6
2023-05-14T03:34:56.953Z,602.7
2023-05-14T03:36:03.731Z,599.7
2023-05-14T03:37:10.503Z,601.1
2023-05-14T03:38:17.284Z,602.2
2023-05-14T03:39:24.065Z,603.2
2023-05-14T03:40:30.846Z,602.4
2023-05-14T03:41:37.619Z,602.9
2023-05-14T03:42:44.407Z,603.8
2023-05-14T03:43:51.180Z,600.9
2023-05-14T03:44:57.972Z,602.7
2023-05-14T03:46:04.736Z,602
2023-05-14T03:47:11.524Z,602.7
2023-05-14T03:48:18.301Z,602.9
2023-05-14T03:49:25.077Z,599.7
2023-05-14T03:50:31.862Z,602.1
2023-05-14T03:51:38.637Z,602.8
2023-05-14T03:52:45.402Z,603.8
2023-05-14T03:53:52.200Z,601.6
2023-05-14T03:54:58.961Z,601.8
2023-05-14T03:56:05.742Z,602.2
2023-05-14T03:58:17.963Z,600.5
2023-05-14T03:59:56.700Z,601.6
2023-05-14T04:01:03.961Z,600.6
2023-05-14T04:02:11.217Z,601
2023-05-14T04:03:49.969Z,602
2023-05-14T04:05:28.685Z,601.3
2023-05-14T04:07:07.437Z,602
2023-05-14T04:08:46.184Z,599.6
2023-05-14T04:10:24.902Z,601
2023-05-14T04:12:03.648Z,601.6
2023-05-14T04:13:42.396Z,601.3
2023-05-14T04:15:21.122Z,600.6
2023-05-14T04:16:59.862Z,601.8
2023-05-14T04:18:39.605Z,602.4
2023-05-14T04:21:55.527Z,602.5
2023-05-14T04:23:02.326Z,601.1
2023-05-14T04:24:09.091Z,600.8
2023-05-14T04:25:15.866Z,601.3
2023-05-14T04:26:22.653Z,601.8
2023-05-14T04:27:29.427Z,601.2
2023-05-14T04:28:36.151Z,600.6
2023-05-14T04:29:42.926Z,599.8
2023-05-14T04:30:49.708Z,602.5
2023-05-14T04:31:56.482Z,599.7
2023-05-14T04:33:03.281Z,600.4
2023-05-14T04:34:10.050Z,600.7
2023-05-14T04:35:16.828Z,602.2
2023-05-14T04:36:23.606Z,600.9
2023-05-14T04:37:30.395Z,600
2023-05-14T04:38:37.168Z,601.1
2023-05-14T04:39:43.973Z,603
2023-05-14T04:40:50.732Z,600.9
2023-05-14T04:41:57.510Z,601.2
2023-05-14T04:43:04.337Z,599.6
2023-05-14T04:44:11.073Z,602
2023-05-14T04:45:17.854Z,601.6
2023-05-14T04:46:24.632Z,601.1
2023-05-14T04:47:31.438Z,601.9
2023-05-14T04:48:38.128Z,601.1
2023-05-14T04:50:50.356Z,601.5
2023-05-14T04:51:57.561Z,600.5
2023-05-14T04:53:04.829Z,602.1
2023-05-14T04:54:43.570Z,600.8
2023-05-14T04:56:22.301Z,600.6
2023-05-14T04:58:01.031Z,599.3
2023-05-14T04:59:39.763Z,601
2023-05-14T05:01:18.513Z,601.1
2023-05-14T05:02:57.249Z,601.5
2023-05-14T05:04:35.978Z,603.2
2023-05-14T05:06:14.724Z,601.6
2023-05-14T05:07:53.468Z,601.9
2023-05-14T05:09:00.725Z,601.2
2023-05-14T05:12:01.511Z,601
2023-05-14T05:15:17.428Z,601
2023-05-14T05:16:24.221Z,602.5
2023-05-14T05:17:30.986Z,601.5
2023-05-14T05:18:37.769Z,599.8
2023-05-14T05:19:44.576Z,601.1
2023-05-14T05:20:51.325Z,602.8
2023-05-14T05:21:58.106Z,602.6
2023-05-14T05:23:04.883Z,600.9
2023-05-14T05:24:11.659Z,600.1
2023-05-14T05:25:18.439Z,600.1
2023-05-14T05:26:25.225Z,599.6
2023-05-14T05:27:31.998Z,599.3
2023-05-14T05:28:38.776Z,600.1
2023-05-14T05:29:45.562Z,598.9
2023-05-14T05:30:52.356Z,601.2
2023-05-14T05:31:59.118Z,602.5
2023-05-14T05:33:05.904Z,600.1
2023-05-14T05:34:12.675Z,601.2
2023-05-14T05:35:19.455Z,602.3
2023-05-14T05:36:26.234Z,601.1
2023-05-14T05:37:33.006Z,600.3
2023-05-14T05:38:39.784Z,598.9
2023-05-14T05:39:46.569Z,599.5
2023-05-14T05:40:53.354Z,599.6
2023-05-14T05:42:00.151Z,601.7
2023-05-14T05:43:33.463Z,600.5
2023-05-14T05:44:40.723Z,601.3
2023-05-14T05:46:19.475Z,601.8
2023-05-14T05:47:58.220Z,599.6
2023-05-14T05:49:36.948Z,601.8
2023-05-14T05:51:15.691Z,599.7
2023-05-14T05:52:54.423Z,600.8
2023-05-14T05:54:33.168Z,599.5
2023-05-14T05:56:11.893Z,599.7
2023-05-14T05:57:50.628Z,601.9
2023-05-14T05:59:29.365Z,599.3
2023-05-14T06:00:36.628Z,598.8
2023-05-14T06:01:43.876Z,600.5
2023-05-14T06:05:51.926Z,601.1
2023-05-14T06:09:07.884Z,601.1
2023-05-14T06:10:14.608Z,601.6
2023-05-14T06:11:21.399Z,600.9
2023-05-14T06:12:28.190Z,599.3
2023-05-14T06:13:34.958Z,600.9
2023-05-14T06:14:41.731Z,601.1
2023-05-14T06:15:48.512Z,599.6
2023-05-14T06:16:55.289Z,598.8
2023-05-14T06:18:02.073Z,599.5
2023-05-14T06:19:08.845Z,600.8
2023-05-14T06:20:15.655Z,601.5
2023-05-14T06:21:22.416Z,600.2
2023-05-14T06:22:29.178Z,599.3
2023-05-14T06:23:35.953Z,601.4
2023-05-14T06:24:42.740Z,601.1
2023-05-14T06:25:49.517Z,600.3
2023-05-14T06:26:56.296Z,601.3
2023-05-14T06:28:03.080Z,600.9
2023-05-14T06:29:09.846Z,601.9
2023-05-14T06:30:16.638Z,602.3
2023-05-14T06:31:23.420Z,600.6
2023-05-14T06:32:30.206Z,601.9
2023-05-14T06:33:36.971Z,602.7
2023-05-14T06:34:43.749Z,601.3
2023-05-14T06:35:50.552Z,600.5
2023-05-14T06:37:23.925Z,600.2
2023-05-14T06:39:02.680Z,600.3
2023-05-14T06:40:41.419Z,600.1
2023-05-14T06:42:20.147Z,601
2023-05-14T06:43:58.878Z,599.9
2023-05-14T06:45:06.134Z,601.2
2023-05-14T06:46:13.392Z,601.3
2023-05-14T06:47:52.134Z,601.6
2023-05-14T06:49:30.887Z,600.4
2023-05-14T06:51:09.616Z,600.6
2023-05-14T06:52:48.350Z,601.7
2023-05-14T06:54:27.085Z,602.2
2023-05-14T06:56:05.815Z,600.9
2023-05-14T07:00:13.869Z,599.9
2023-05-14T07:01:33.288Z,599.9
2023-05-14T07:03:30.292Z,602.2
2023-05-14T07:05:09.032Z,602.3
2023-05-14T07:06:47.761Z,602
2023-05-14T07:08:26.500Z,600.7
2023-05-14T07:10:05.245Z,600.4
2023-05-14T07:11:43.991Z,601.3
2023-05-14T07:13:22.734Z,601.7
2023-05-14T07:15:01.455Z,600.5
2023-05-14T07:16:40.207Z,600.8
2023-05-14T07:18:18.932Z,600.7
2023-05-14T07:19:57.680Z,600.4
2023-05-14T07:21:04.889Z,601.9
2023-05-14T07:22:12.080Z,602
2023-05-14T07:23:50.813Z,602.7
2023-05-14T07:25:29.553Z,600.4
2023-05-14T07:27:08.307Z,601.7
2023-05-14T07:28:47.051Z,600.4
2023-05-14T07:30:25.775Z,602.7
2023-05-14T07:32:04.538Z,602.5
2023-05-14T07:33:43.272Z,601.9
2023-05-14T07:35:22.015Z,601.4
2023-05-14T07:37:00.767Z,600.9
2023-05-14T07:38:08.024Z,601.6
2023-05-14T07:39:15.276Z,602.5
2023-05-14T07:43:23.321Z,601.7
2023-05-14T07:46:39.818Z,601.5
2023-05-14T07:48:26.644Z,602.1
2023-05-14T07:50:05.393Z,602.2
2023-05-14T07:51:44.171Z,603.2
2023-05-14T07:53:22.880Z,601.7
2023-05-14T07:54:35.014Z,602.9
2023-05-14T07:55:42.258Z,604.5
2023-05-14T07:57:20.997Z,601.7
2023-05-14T07:58:59.741Z,603.3
2023-05-14T08:00:38.476Z,602.7
2023-05-14T08:02:17.215Z,602.6
2023-05-14T08:03:55.961Z,601.7
2023-05-14T08:05:34.690Z,602.6
2023-05-14T08:07:13.478Z,602.4
2023-05-14T08:08:52.177Z,600.9
2023-05-14T08:10:30.914Z,604.4
2023-05-14T08:11:38.169Z,600.7
2023-05-14T08:12:45.416Z,602
2023-05-14T08:14:24.161Z,602.2
2023-05-14T08:16:02.888Z,603.1
2023-05-14T08:17:41.654Z,603.1
2023-05-14T08:19:20.344Z,603
2023-05-14T08:20:59.076Z,601.3
2023-05-14T08:22:37.828Z,602.8
2023-05-14T08:24:16.544Z,602.3
2023-05-14T08:28:06.160Z,601.6
2023-05-14T08:29:12.711Z,603.3
2023-05-14T08:30:19.237Z,602.6
2023-05-14T08:31:25.787Z,603
2023-05-14T08:32:32.328Z,604.2
2023-05-14T08:33:38.776Z,604.1
2023-05-14T08:34:45.288Z,604.2
2023-05-14T08:35:51.836Z,601.8
2023-05-14T08:36:58.370Z,601.8
2023-05-14T08:38:04.911Z,604.3
2023-05-14T08:39:11.474Z,603.4
2023-05-14T08:40:18.002Z,603.6
2023-05-14T08:41:24.542Z,604.5
2023-05-14T08:42:31.075Z,606.7
2023-05-14T08:43:37.599Z,604
2023-05-14T08:44:44.149Z,602.4
2023-05-14T08:45:50.682Z,602.6
2023-05-14T08:46:57.217Z,604.8
2023-05-14T08:48:03.750Z,603.9
2023-05-14T08:49:10.300Z,605.2
2023-05-14T08:50:16.820Z,605.6
2023-05-14T08:51:23.380Z,603.8
2023-05-14T08:52:29.912Z,604
2023-05-14T08:53:36.448Z,604
2023-05-14T08:54:42.989Z,605
2023-05-14T08:55:49.535Z,604.5
2023-05-14T08:56:56.252Z,602.5
2023-05-14T08:58:03.064Z,604.2
2023-05-14T08:59:09.809Z,604
2023-05-14T09:00:16.584Z,604
2023-05-14T09:01:23.375Z,604.1
2023-05-14T09:02:30.169Z,604.9
2023-05-14T09:03:36.917Z,603.9
2023-05-14T09:04:43.693Z,605.1
2023-05-14T09:05:50.490Z,605.7
2023-05-14T09:06:57.267Z,605.1
2023-05-14T09:08:04.048Z,604.7
2023-05-14T09:09:10.856Z,603.3
2023-05-14T09:10:17.588Z,603.8
2023-05-14T09:12:57.970Z,603.4
2023-05-14T09:14:36.693Z,605.1
2023-05-14T09:16:15.428Z,604
2023-05-14T09:17:54.174Z,604.3
2023-05-14T09:19:01.417Z,605.5
2023-05-14T09:20:08.696Z,605.2
2023-05-14T09:21:47.427Z,603.7
2023-05-14T09:23:26.150Z,604.9
2023-05-14T09:25:04.895Z,605.7
2023-05-14T09:26:43.622Z,605.2
2023-05-14T09:28:22.368Z,606.3
2023-05-14T09:30:01.103Z,605.3
2023-05-14T09:31:39.838Z,604.4
2023-05-14T09:35:29.502Z,604.5
2023-05-14T09:36:36.300Z,605.2
2023-05-14T09:37:43.063Z,605.5
2023-05-14T09:38:49.847Z,605.2
2023-05-14T09:39:56.628Z,605.5
2023-05-14T09:41:03.411Z,605.9
2023-05-14T09:42:10.184Z,606.6
2023-05-14T09:43:16.962Z,607.1
2023-05-14T09:44:23.776Z,605.9
2023-05-14T09:45:30.723Z,606
2023-05-14T09:46:37.349Z,605.2
2023-05-14T09:47:44.212Z,605.6
2023-05-14T09:48:50.965Z,608.4
2023-05-14T09:49:57.638Z,607.8
2023-05-14T09:51:04.466Z,606.9
2023-05-14T09:52:11.196Z,606.6
2023-05-14T09:53:17.950Z,606.1
2023-05-14T09:54:24.802Z,606.6
2023-05-14T09:55:31.562Z,605.1
2023-05-14T09:56:38.282Z,605.4
2023-05-14T09:57:45.066Z,606.7
2023-05-14T09:58:51.952Z,605.1
2023-05-14T09:59:58.751Z,606
2023-05-14T10:01:05.416Z,606.3
2023-05-14T10:02:12.171Z,605
2023-05-14T10:03:19.036Z,608.9
2023-05-14T10:05:31.182Z,607.4
2023-05-14T10:07:09.889Z,608.4
2023-05-14T10:08:22.436Z,608.9
2023-05-14T10:09:29.737Z,606.8
2023-05-14T10:11:08.416Z,606.2
2023-05-14T10:12:47.164Z,606.2
2023-05-14T10:14:25.902Z,607
2023-05-14T10:16:04.700Z,607.5
2023-05-14T10:17:43.397Z,607.7
2023-05-14T10:19:22.166Z,608.8
2023-05-14T10:21:00.843Z,608.6
2023-05-14T10:22:39.622Z,607
2023-05-14T10:24:18.371Z,607.7
2023-05-14T10:25:58.069Z,608.3
2023-05-14T10:29:15.489Z,608.6
2023-05-14T10:32:31.410Z,607
2023-05-14T10:33:38.194Z,607.6
2023-05-14T10:34:44.952Z,608.3
2023-05-14T10:35:51.754Z,608.9
2023-05-14T10:36:58.514Z,608.6
2023-05-14T10:38:05.289Z,607.6
2023-05-14T10:39:12.061Z,608.2
2023-05-14T10:40:18.840Z,608.4
2023-05-14T10:41:25.703Z,608.5
2023-05-14T10:42:32.428Z,607.7
2023-05-14T10:43:39.176Z,608.7
2023-05-14T10:44:45.956Z,608.9
2023-05-14T10:45:52.730Z,609
2023-05-14T10:46:59.508Z,608.2
2023-05-14T10:48:06.391Z,607.9
2023-05-14T10:49:13.062Z,608.8
2023-05-14T10:50:19.880Z,608.8
2023-05-14T10:51:26.781Z,610.5
2023-05-14T10:52:33.459Z,608.4
2023-05-14T10:53:40.180Z,608.7
2023-05-14T10:54:46.947Z,610.1
2023-05-14T10:55:53.738Z,607.5
2023-05-14T10:57:00.497Z,609.9
2023-05-14T10:58:07.268Z,608.4
2023-05-14T10:59:14.043Z,611
2023-05-14T11:00:47.691Z,608.8
2023-05-14T11:02:26.303Z,610
2023-05-14T11:04:05.133Z,610.7
2023-05-14T11:05:43.783Z,609.7
2023-05-14T11:07:22.521Z,609.2
2023-05-14T11:08:29.773Z,609.2
2023-05-14T11:09:37.070Z,608.9
2023-05-14T11:11:15.761Z,610
2023-05-14T11:12:54.514Z,608.7
2023-05-14T11:14:33.250Z,609.8
2023-05-14T11:16:11.982Z,609.1
2023-05-14T11:17:50.729Z,609.4
2023-05-14T11:19:29.463Z,609.2
2023-05-14T11:23:37.521Z,610.3
2023-05-14T11:24:56.835Z,611
2023-05-14T11:26:53.958Z,611.7
2023-05-14T11:28:32.669Z,609.7
2023-05-14T11:30:11.420Z,609.1
2023-05-14T11:31:50.151Z,609.5
2023-05-14T11:33:28.911Z,610.9
2023-05-14T11:35:07.642Z,610.2
2023-05-14T11:36:46.373Z,610.5
2023-05-14T11:38:25.111Z,610.5
2023-05-14T11:40:03.847Z,610.4
2023-05-14T11:41:42.600Z,609.4
2023-05-14T11:42:49.845Z,610.1
2023-05-14T11:43:57.094Z,610.1
2023-05-14T11:45:35.899Z,609.7
2023-05-14T11:47:14.571Z,610.6
2023-05-14T11:48:53.308Z,610.3
2023-05-14T11:50:32.049Z,609.4
2023-05-14T11:52:10.828Z,611.4
2023-05-14T11:53:49.547Z,610.2
2023-05-14T11:55:28.320Z,610
2023-05-14T11:57:07.008Z,610.4
2023-05-14T11:58:45.742Z,610.6
2023-05-14T11:59:52.993Z,613.6
2023-05-14T12:01:00.242Z,610.6
2023-05-14T12:02:39.042Z,610.9
2023-05-14T12:06:47.010Z,611.3
2023-05-14T12:10:03.604Z,611.8
2023-05-14T12:11:58.576Z,611.5
2023-05-14T12:13:37.297Z,612.7
2023-05-14T12:15:16.078Z,612
2023-05-14T12:16:23.244Z,611.1
2023-05-14T12:17:30.446Z,611.4
2023-05-14T12:19:09.169Z,611.8
2023-05-14T12:20:47.920Z,611.3
2023-05-14T12:22:26.690Z,612
2023-05-14T12:24:05.478Z,611
2023-05-14T12:25:44.133Z,611.5
2023-05-14T12:27:22.887Z,611.2
2023-05-14T12:29:01.634Z,611.3
2023-05-14T12:30:40.349Z,611.5
2023-05-14T12:32:19.095Z,611.7
2023-05-14T12:33:26.435Z,611.2
2023-05-14T12:34:33.597Z,612.4
2023-05-14T12:36:12.326Z,611.2
2023-05-14T12:37:51.116Z,612.1
2023-05-14T12:39:29.819Z,610.5
2023-05-14T12:41:08.573Z,611.2
2023-05-14T12:42:47.256Z,610.2
2023-05-14T12:44:25.991Z,610.5
2023-05-14T12:46:04.736Z,610.3
2023-05-14T12:47:43.481Z,612.6
2023-05-14T12:49:54.358Z,611.3
2023-05-14T12:51:50.022Z,610.9
2023-05-14T12:52:56.753Z,610.3
2023-05-14T12:54:03.485Z,610.5
2023-05-14T12:55:10.252Z,612.6
2023-05-14T12:56:16.988Z,611.3
2023-05-14T12:57:23.692Z,609.8
2023-05-14T12:58:30.495Z,610.8
2023-05-14T12:59:37.252Z,613.9
2023-05-14T13:00:44.035Z,612
2023-05-14T13:01:50.813Z,611.9
2023-05-14T13:02:57.747Z,611.5
2023-05-14T13:04:04.350Z,613.5
2023-05-14T13:05:11.077Z,611.8
2023-05-14T13:06:17.863Z,613.7
2023-05-14T13:07:24.703Z,612.1
2023-05-14T13:08:31.440Z,613.3
2023-05-14T13:09:38.201Z,612.7
2023-05-14T13:10:44.983Z,610.9
2023-05-14T13:11:51.749Z,611.8
2023-05-14T13:12:58.534Z,613.1
2023-05-14T13:14:05.312Z,612.7
2023-05-14T13:15:12.105Z,612.8
2023-05-14T13:16:18.813Z,613.1
2023-05-14T13:17:25.585Z,612.5
2023-05-14T13:18:32.367Z,613.8
2023-05-14T13:20:44.586Z,612.9
2023-05-14T13:22:23.321Z,613.3
2023-05-14T13:23:30.570Z,611.9
2023-05-14T13:24:37.828Z,612.1
2023-05-14T13:26:16.560Z,612.9
2023-05-14T13:27:55.334Z,613.1
2023-05-14T13:29:34.045Z,613.2
2023-05-14T13:31:12.785Z,612.1
2023-05-14T13:32:51.532Z,614.6
2023-05-14T13:34:30.261Z,613.9
2023-05-14T13:36:08.995Z,614.1
2023-05-14T13:37:47.746Z,613.1
2023-05-14T13:39:26.474Z,613.2
2023-05-14T13:41:06.224Z,612.7
2023-05-14T13:44:22.158Z,613.7
2023-05-14T13:45:28.929Z,613.7
2023-05-14T13:46:35.704Z,612.6
2023-05-14T13:47:42.660Z,612.5
2023-05-14T13:48:49.420Z,613.4
2023-05-14T13:49:56.195Z,613.2
2023-05-14T13:51:02.950Z,612.8
2023-05-14T13:52:09.663Z,614.3
2023-05-14T13:53:16.359Z,612.6
2023-05-14T13:54:23.250Z,613.5
2023-05-14T13:55:30.030Z,611.3
2023-05-14T13:56:36.865Z,613.1
2023-05-14T13:57:43.698Z,613
2023-05-14T13:58:50.245Z,613
2023-05-14T13:59:57.141Z,612.3
2023-05-14T14:01:03.854Z,612.3
2023-05-14T14:02:10.499Z,612.9
2023-05-14T14:03:17.246Z,613.1
2023-05-14T14:04:24.039Z,612.3
2023-05-14T14:05:30.806Z,613
2023-05-14T14:06:37.717Z,612.4
2023-05-14T14:07:44.394Z,612.2
2023-05-14T14:08:51.312Z,612.7
2023-05-14T14:09:57.912Z,612.3
2023-05-14T14:11:04.755Z,612.9
2023-05-14T14:13:16.985Z,612.7
2023-05-14T14:14:24.171Z,611.8
2023-05-14T14:15:31.431Z,612.5
2023-05-14T14:17:10.282Z,612.9
2023-05-14T14:18:48.894Z,613
2023-05-14T14:20:27.656Z,613.5
2023-05-14T14:22:06.374Z,612.5
2023-05-14T14:23:45.236Z,612.9
2023-05-14T14:25:23.854Z,613
2023-05-14T14:27:02.594Z,612
2023-05-14T14:28:41.496Z,612.7
2023-05-14T14:30:20.215Z,612.7
2023-05-14T14:31:27.511Z,613
2023-05-14T14:34:28.138Z,612.2
2023-05-14T14:37:44.044Z,611.8
2023-05-14T14:38:50.820Z,612.5
2023-05-14T14:39:57.609Z,612.3
2023-05-14T14:41:04.407Z,611.2
2023-05-14T14:42:11.181Z,612.5
2023-05-14T14:43:17.937Z,611.2
2023-05-14T14:44:24.750Z,611
2023-05-14T14:45:31.497Z,610.4
2023-05-14T14:46:38.280Z,611.5
2023-05-14T14:47:45.039Z,612.3
2023-05-14T14:48:51.926Z,611.6
2023-05-14T14:49:58.645Z,612.8
2023-05-14T14:51:05.412Z,611.9
2023-05-14T14:52:12.227Z,612.6
2023-05-14T14:53:18.967Z,612.6
2023-05-14T14:54:25.716Z,611.5
2023-05-14T14:55:32.496Z,612
2023-05-14T14:56:39.365Z,610.9
2023-05-14T14:57:46.078Z,612.8
2023-05-14T14:58:52.855Z,613.5
2023-05-14T14:59:59.763Z,611.9
2023-05-14T15:01:06.492Z,612.9
2023-05-14T15:02:13.176Z,611.5
2023-05-14T15:03:19.963Z,611.7
2023-05-14T15:04:26.766Z,611.9
2023-05-14T15:06:00.115Z,612.8
2023-05-14T15:07:07.433Z,612.9
2023-05-14T15:08:46.080Z,610.8
2023-05-14T15:10:24.838Z,611.9
2023-05-14T15:12:03.555Z,611.3
2023-05-14T15:13:42.289Z,612.4
2023-05-14T15:15:21.032Z,613.6
2023-05-14T15:16:59.778Z,611.8
2023-05-14T15:18:38.607Z,611.9
2023-05-14T15:20:17.248Z,612.8
2023-05-14T15:21:55.993Z,612.3
2023-05-14T15:23:03.255Z,611.9
2023-05-14T15:24:10.488Z,612.6
2023-05-14T15:28:18.569Z,611.9
2023-05-14T15:31:35.957Z,612.2
2023-05-14T15:34:51.879Z,612.4
2023-05-14T15:35:58.655Z,610.1
2023-05-14T15:37:05.464Z,609.2
2023-05-14T15:38:12.160Z,610.1
2023-05-14T15:39:18.877Z,612.3
2023-05-14T15:40:25.606Z,612.8
2023-05-14T15:41:32.363Z,611.9
2023-05-14T15:42:39.072Z,612.6
2023-05-14T15:43:45.761Z,612.7
2023-05-14T15:44:52.516Z,611.8
2023-05-14T15:45:59.199Z,611.6
2023-05-14T15:47:05.926Z,610.2
2023-05-14T15:48:12.644Z,611.9
2023-05-14T15:49:19.357Z,610
2023-05-14T15:50:26.128Z,611
2023-05-14T15:51:32.876Z,611.1
2023-05-14T15:52:39.523Z,611.9
2023-05-14T15:53:46.240Z,611.2
2023-05-14T15:54:53.033Z,610.6
2023-05-14T15:55:59.680Z,611.1
2023-05-14T15:57:06.490Z,611.3
2023-05-14T15:58:13.154Z,612.2
2023-05-14T15:59:19.844Z,611.2
2023-05-14T16:00:26.685Z,611.1
2023-05-14T16:01:33.481Z,611.3
2023-05-14T16:03:45.622Z,612
2023-05-14T16:05:24.366Z,611.4
2023-05-14T16:06:31.649Z,611.3
2023-05-14T16:07:38.840Z,610.8
2023-05-14T16:09:17.579Z,611.2
2023-05-14T16:10:56.322Z,611
2023-05-14T16:12:35.046Z,610.9
2023-05-14T16:14:13.818Z,609.8
2023-05-14T16:15:52.607Z,609.9
2023-05-14T16:17:31.344Z,611.1
2023-05-14T16:19:09.955Z,609.6
2023-05-14T16:20:48.713Z,610.4
2023-05-14T16:22:27.489Z,612.4
2023-05-14T16:24:07.170Z,611.3
2023-05-14T16:27:23.068Z,610
2023-05-14T16:28:29.841Z,609.5
2023-05-14T16:29:36.618Z,610.3
2023-05-14T16:30:43.449Z,609.6
2023-05-14T16:31:50.159Z,610.9
2023-05-14T16:32:56.967Z,610.7
2023-05-14T16:34:03.807Z,610.3
2023-05-14T16:35:10.509Z,611.8
2023-05-14T16:36:17.279Z,610.7
2023-05-14T16:37:24.070Z,610.5
2023-05-14T16:38:30.922Z,610.1
2023-05-14T16:39:37.619Z,609.8
2023-05-14T16:40:44.379Z,611.2
2023-05-14T16:41:51.160Z,609.9
2023-05-14T16:42:57.973Z,610.4
2023-05-14T16:44:04.714Z,609.4
2023-05-14T16:45:11.496Z,610.2
2023-05-14T16:46:18.269Z,610.4
2023-05-14T16:47:25.056Z,611.1
2023-05-14T16:48:31.844Z,610.4
2023-05-14T16:49:38.632Z,609
2023-05-14T16:50:45.475Z,610.5
2023-05-14T16:51:52.165Z,609.9
2023-05-14T16:52:58.941Z,612.3
2023-05-14T16:54:05.721Z,610.5
2023-05-14T16:56:17.939Z,609
2023-05-14T16:57:25.183Z,610.1
2023-05-14T16:58:32.451Z,609.4
2023-05-14T17:00:11.182Z,610.7
2023-05-14T17:01:49.924Z,610.4
2023-05-14T17:03:28.700Z,610.6
2023-05-14T17:05:07.407Z,610.3
2023-05-14T17:06:46.140Z,609.6
2023-05-14T17:08:24.874Z,610.6
2023-05-14T17:10:03.620Z,610
2023-05-14T17:11:42.338Z,608.9
2023-05-14T17:13:21.089Z,608.2
2023-05-14T17:14:28.360Z,610
2023-05-14T17:17:29.154Z,610.8
2023-05-14T17:20:45.693Z,608.5
2023-05-14T17:22:40.676Z,610.3
2023-05-14T17:24:19.425Z,610.4
2023-05-14T17:25:58.151Z,609.1
2023-05-14T17:27:36.914Z,608.6
2023-05-14T17:29:15.621Z,609.6
2023-05-14T17:30:54.368Z,610.8
2023-05-14T17:32:01.635Z,609.8
2023-05-14T17:33:08.911Z,610.9
2023-05-14T17:34:47.599Z,608.2
2023-05-14T17:36:26.442Z,609.2
2023-05-14T17:38:05.103Z,609.3
2023-05-14T17:39:43.808Z,609.8
2023-05-14T17:41:22.549Z,608.2
2023-05-14T17:43:01.279Z,610.1
2023-05-14T17:44:40.036Z,611.7
2023-05-14T17:46:18.836Z,608.5
2023-05-14T17:47:57.498Z,608.1
2023-05-14T17:49:04.748Z,610.9
2023-05-14T17:50:11.989Z,608.8
2023-05-14T17:51:50.756Z,609.8
2023-05-14T17:53:29.465Z,608.2
2023-05-14T17:55:08.209Z,610.4
2023-05-14T17:56:46.948Z,608.7
2023-05-14T17:58:25.684Z,607.9
2023-05-14T18:02:33.724Z,609.7
2023-05-14T18:05:31.285Z,608.9
2023-05-14T18:06:38.139Z,609.8
2023-05-14T18:07:44.860Z,608.2
2023-05-14T18:08:51.672Z,609.9
2023-05-14T18:09:58.399Z,609.3
2023-05-14T18:11:05.163Z,608.7
2023-05-14T18:12:11.947Z,609.9
2023-05-14T18:13:18.713Z,608.8
2023-05-14T18:14:25.531Z,610.3
2023-05-14T18:15:32.287Z,608.1
2023-05-14T18:16:39.042Z,609.4
2023-05-14T18:17:45.806Z,610
2023-05-14T18:18:52.589Z,608.7
2023-05-14T18:19:59.366Z,608.5
2023-05-14T18:21:06.131Z,608.8
2023-05-14T18:22:12.912Z,608.6
2023-05-14T18:23:19.725Z,609.2
2023-05-14T18:24:26.521Z,610
2023-05-14T18:25:33.242Z,610.4
2023-05-14T18:26:40.028Z,609.5
2023-05-14T18:27:46.806Z,610.7
2023-05-14T18:28:53.579Z,608.4
2023-05-14T18:30:00.376Z,607.4
2023-05-14T18:31:07.183Z,609.7
2023-05-14T18:32:13.916Z,608.2
2023-05-14T18:33:47.857Z,609.9
2023-05-14T18:35:26.614Z,608.1
2023-05-14T18:37:05.311Z,608.7
2023-05-14T18:38:44.095Z,606.3